Weather observations for the past three days for
Minden Airport
Metric (Imperial)
Date Time (cdt) Wind (kph) Vis. (km) Weather Sky Cond. Temperature (ºC) Relative Humidity Wind Chill (°C) Heat Index (°C) Pressure Precipitation (cm)
Air Dwpt 6 hour altimeter (cm) sea level (mb) 1 hr 3 hr 6 hr
Max. Min.
09 12:35 Calm 2.41 Fog/Mist OVC004 21 19 88% 75.92 0.0
09 12:15 Calm 4.83 Light Rain OVC008 21 19 88% 75.92 0.0
09 11:55 Calm 6.44 Overcast with Haze OVC008 21 18 83% 75.92 0.0
09 11:35 Calm 16.09 Overcast OVC012 21 18 83% 75.9 0.0
09 11:15 Calm 16.09 Overcast OVC012 21 18 83% 75.9 0.0
09 10:55 Calm 16.09 Overcast OVC012 21 18 83% 75.87 0.0
09 10:35 Calm 16.09 Overcast OVC012 21 18 83% 75.87 0.0
09 10:15 Calm 11.27 Overcast OVC012 21 18 83% 75.87 0.0
09 09:55 Calm 16.09 Overcast OVC012 20 17 83% 75.87 0.0
09 09:35 Calm 16.09 Overcast OVC012 20 17 83% 75.9 0.0
09 09:15 Calm 16.09 Overcast OVC012 19 17 88% 75.9 0.0
09 08:55 Calm 16.09 Overcast OVC014 18 17 94% 75.92 0.0
09 08:15 Calm 11.27 Light Rain OVC014 18 17 94% 75.9 0.0
09 07:55 Calm 16.09 Overcast OVC014 18 16 88% 75.9 0.0
09 07:35 Calm 16.09 Overcast OVC018 17 16 94% 75.87 0.0
09 07:15 Calm 16.09 Thunderstorm in Vicinity OVC020 17 16 94% 75.87 0.0
09 06:55 Calm 11.27 Overcast OVC024 17 16 94% 75.84 0.0
09 06:35 Calm 6.44 Fog/Mist BKN026 BKN040 17 15 88% 75.84 0.0
09 06:15 Calm 11.27 Mostly Cloudy SCT028 BKN036 BKN043 17 16 94% 75.82 0.0
09 05:55 Calm 16.09 Overcast OVC034 17 16 94% 75.82 0.0
09 05:35 Calm 6.44 Fog/Mist BKN032 BKN038 17 15 88% 75.82 0.0
09 05:15 Calm 8.05 Fog/Mist CLR 17 15 88% 75.79 0.0
09 04:35 Calm 16.09 Fair CLR 17 16 94% 75.79 0.0
09 04:15 W 7 11.27 Thunderstorm in Vicinity CLR 17 16 94% 75.79 0.0
09 03:55 Calm 16.09 Thunderstorm in Vicinity CLR 17 16 94% 75.77 0.0
09 03:35 W 6 16.09 Thunderstorm in Vicinity SCT005 SCT009 SCT110 18 16 88% 75.84 0.0
09 03:15 W 31 G 52 16.09 Thunderstorm Light Rain in Vicinity SCT005 SCT047 BKN110 18 17 94% 75.92 0.0
09 02:55 E 17 G 26 16.09 Thunderstorm Light Rain SCT003 BKN048 OVC110 18 17 94% 75.59 0.0
09 02:35 S 13 16.09 Thunderstorm Light Rain BKN003 BKN035 OVC080 19 18 94% 75.84 0.0
09 02:15 S 7 8.05 Thunderstorm Rain BKN005 BKN032 OVC080 19 18 94% 75.79 0.0
09 01:55 NW 15 4.83 Thunderstorm Heavy Rain BKN007 BKN037 OVC060 20 18 88% 75.87 0.0
09 01:35 Calm 16.09 Thunderstorm Light Rain SCT011 BKN023 OVC110 20 18 88% 75.84 0.0
09 01:15 SE 6 16.09 Thunderstorm Light Rain in Vicinity SCT009 BKN095 OVC110 20 18 88% 75.84 0.0
09 00:55 Calm 16.09 Thunderstorm Light Rain in Vicinity OVC007 20 18 88% 75.92 0.0
09 00:35 NW 6 16.09 Thunderstorm in Vicinity OVC007 20 17 83% 75.92 0.0
09 00:15 Calm 16.09 Thunderstorm in Vicinity OVC009 20 17 83% 75.84 0.0
08 23:55 S 9 16.09 Thunderstorm in Vicinity OVC009 20 17 83% 75.82 0.0
08 23:35 S 6 16.09 Overcast OVC009 20 17 83% 75.87 0.0
08 23:15 S 7 16.09 Overcast OVC011 20 17 83% 75.92 0.0
08 22:55 S 7 16.09 Overcast OVC011 20 17 83% 75.92 0.0
08 22:35 SE 7 16.09 Overcast OVC013 21 17 78% 75.9 0.0
08 22:15 SE 6 16.09 Overcast OVC015 21 16 73% 75.9 0.0
08 21:55 SE 7 16.09 Overcast OVC019 21 16 73% 75.84 0.0
08 21:35 SE 6 16.09 Overcast OVC021 21 16 73% 75.79 0.0
08 21:15 SE 7 16.09 Overcast OVC021 21 15 69% 75.77 0.0
08 20:55 Calm 16.09 Overcast OVC023 21 15 69% 75.77 0.0
08 20:35 Calm 16.09 Mostly Cloudy BKN025 21 15 69% 75.77 0.0
08 20:15 SE 7 16.09 Fair CLR 21 15 69% 75.74 0.0
08 19:55 E 6 16.09 Fair CLR 21 15 69% 75.69 0.0
08 19:35 SE 11 16.09 Fair CLR 22 14 61% 75.74 0.0
08 19:15 SE 9 16.09 Fair CLR 22 13 57% 75.77 0.0
08 18:55 Calm 16.09 Partly Cloudy SCT070 SCT110 23 12 50% 75.79 0.0
08 18:35 S 7 16.09 Overcast OVC070 23 11 47% 75.82 0.0
08 18:15 SE 9 16.09 Overcast OVC070 23 12 50% 75.82 0.0
08 17:55 SE 15 16.09 Partly Cloudy SCT080 25 12 44% 26 75.79 0.0
08 17:35 SE 13 16.09 Mostly Cloudy BKN080 25 11 42% 26 75.79 0.0
08 17:15 SE 6 16.09 Mostly Cloudy BKN075 BKN080 25 11 42% 26 75.82 0.0
08 16:55 S 9 16.09 Partly Cloudy SCT075 25 11 42% 26 75.82 0.0
08 16:35 E 9 16.09 Overcast BKN075 OVC085 26 11 39% 26 75.82 0.0
08 16:15 Calm 16.09 Overcast OVC075 25 10 39% 26 75.82 0.0
08 15:55 Calm 16.09 Partly Cloudy SCT075 25 10 39% 26 75.82 0.0
08 15:35 SE 9 16.09 Fair CLR 25 11 42% 26 75.82 0.0
08 15:15 Calm 16.09 Partly Cloudy SCT080 25 10 39% 26 75.84 0.0
08 14:55 S 6 16.09 Fair CLR 25 11 42% 26 75.9 0.0
08 14:35 SE 11 16.09 Fair CLR 25 11 42% 26 75.92 0.0
08 14:15 NE 6 16.09 Fair CLR 24 10 41% 25 75.92 0.0
08 13:55 Calm 16.09 Fair CLR 23 10 44% 75.92 0.0
08 13:35 Calm 16.09 Fair CLR 23 11 47% 75.95 0.0
08 13:15 E 9 16.09 Fair CLR 22 10 47% 75.97 0.0
08 12:55 E 11 16.09 Fair CLR 23 11 47% 76 0.0
08 12:35 SE 9 16.09 Fair CLR 23 11 47% 76.02 0.0
08 12:15 E 6 16.09 Fair CLR 22 11 50% 76.05 0.0
08 11:55 SE 6 G 15 16.09 Fair CLR 22 10 47% 76.12 0.0
08 11:35 SE 11 16.09 Fair CLR 21 11 53% 76.15 0.0
08 11:15 SE 13 G 30 16.09 Fair CLR 20 10 53% 76.12 0.0
08 10:55 E 9 16.09 Fair CLR 20 11 56% 76.2 0.0
08 10:35 SE 6 16.09 Fair CLR 19 10 56% 76.23 0.0
08 10:15 Calm 16.09 Fair CLR 19 11 60% 76.23 0.0
08 09:55 Calm 16.09 Fair CLR 18 11 64% 76.23 0.0
08 09:35 Calm 16.09 Fair CLR 17 10 64% 76.23 0.0
08 09:15 Calm 16.09 Fair CLR 17 11 68% 76.23 0.0
08 08:55 Calm 16.09 Fair CLR 16 11 72% 76.17 0.0
08 08:35 Calm 16.09 Fair CLR 16 11 72% 76.12 0.0
08 08:15 Calm 16.09 Fair CLR 16 11 72% 76.12 0.0
08 07:55 Calm 16.09 Fair CLR 16 10 68% 76.15 0.0 0.03
08 07:35 Calm 16.09 Thunderstorm in Vicinity CLR 15 10 72% 76.17 0.0 0.03
08 07:15 E 6 16.09 Partly Cloudy SCT100 14 11 82% 76.2 0.0
08 06:55 Calm 16.09 Light Rain SCT070 BKN100 14 11 82% 76.25 0.0
08 06:35 Calm 16.09 Mostly Cloudy BKN110 15 11 77% 76.23 0.0
08 06:15 E 11 16.09 Overcast SCT060 SCT090 OVC110 15 11 77% 76.17 0.0
08 05:55 Calm 16.09 Mostly Cloudy BKN110 15 11 77% 76.17 0.0
08 05:35 E 6 16.09 Mostly Cloudy BKN110 15 11 77% 76.12 0.0
08 05:15 SE 6 16.09 Partly Cloudy SCT120 15 11 77% 76.15 0.0
08 04:55 E 6 16.09 Partly Cloudy SCT120 15 11 77% 76.17 0.0
08 04:35 E 6 16.09 Partly Cloudy SCT120 15 11 77% 76.17 0.0
08 04:15 E 6 16.09 Fair CLR 15 11 77% 76.17 0.0
08 03:55 Calm 16.09 Fair CLR 15 10 72% 76.15 0.0
08 03:35 Calm 16.09 Fair CLR 15 11 77% 76.15 0.0
08 03:15 E 6 16.09 Fair CLR 15 12 82% 76.17 0.0
08 02:55 Calm 16.09 Fair CLR 15 12 82% 76.2 0.0
08 02:35 Calm 16.09 Fair CLR 15 12 82% 76.17 0.0
08 02:15 Calm 16.09 Fair CLR 15 12 82% 76.17 0.0
08 01:55 Calm 16.09 Fair CLR 15 12 82% 76.2 0.0 0.03
08 01:35 Calm 16.09 Fair CLR 15 12 82% 76.2 0.0 0.03
08 01:15 Calm 16.09 Fair CLR 15 12 82% 76.2 0.0
08 00:55 Calm 16.09 Fair CLR 15 12 82% 76.2 0.0
08 00:35 Calm 16.09 Fair CLR 15 12 82% 76.2 0.0
08 00:15 Calm 16.09 Fair CLR 15 12 82% 76.2 0.0
07 23:55 Calm 16.09 Fair CLR 15 12 82% 76.2 0.0
07 23:35 Calm 16.09 Fair CLR 15 12 82% 76.2 0.0
07 23:15 Calm 4.83 Fair with Haze CLR 16 12 77% 76.2 0.0
07 22:55 Calm 16.09 Fair CLR 16 13 83% 76.23 0.0
07 22:35 Calm 16.09 Fair CLR 16 13 83% 76.25 0.0
07 22:15 Calm 16.09 Fair CLR 16 13 83% 76.25 0.0
07 21:55 Calm 16.09 Fair CLR 16 13 83% 76.2 0.0
07 21:35 Calm 16.09 Fair CLR 16 13 83% 76.2 0.0
07 21:15 Calm 16.09 Fair CLR 16 13 83% 76.2 0.0
07 20:55 Calm 16.09 Fair CLR 17 13 77% 76.2 0.0
07 20:35 Calm 16.09 Fair CLR 17 13 77% 76.17 0.0
07 20:15 Calm 16.09 Fair CLR 17 13 77% 76.17 0.0
07 19:55 Calm 16.09 Fair CLR 18 12 68% 76.17 0.0
07 19:35 Calm 16.09 Fair CLR 18 13 73% 76.17 0.0
07 19:15 Calm 16.09 Fair CLR 19 12 64% 76.17 0.0
07 18:55 Calm 16.09 Fair CLR 20 12 60% 76.17 0.0
07 18:35 Calm 16.09 Fair CLR 20 11 56% 76.15 0.0
07 18:15 Calm 16.09 Fair CLR 20 11 56% 76.17 0.0
07 17:55 Calm 16.09 Fair CLR 20 11 56% 76.17 0.0
07 17:35 E 7 16.09 Fair CLR 21 10 50% 76.17 0.0
07 17:15 E 7 16.09 Fair CLR 21 10 50% 76.17 0.0
07 16:55 Calm 16.09 Fair CLR 21 10 50% 76.2 0.0
07 16:35 Calm 16.09 Fair CLR 21 10 50% 76.2 0.0
07 16:15 Calm 16.09 Fair CLR 21 10 50% 76.2 0.0
07 15:55 Calm 16.09 Fair CLR 21 9 46% 76.2 0.0
07 15:35 N 9 16.09 Fair CLR 21 10 50% 76.23 0.0
07 15:15 Calm 16.09 Fair CLR 21 9 46% 76.28 0.0
07 14:55 NE 7 16.09 Fair CLR 20 8 46% 76.28 0.0 0.03
07 14:35 NE 7 16.09 Fair CLR 20 8 46% 76.28 0.0 0.03
07 14:15 N 6 16.09 Fair CLR 20 7 43% 76.28 0.0 0.03
07 13:55 NE 11 16.09 Fair CLR 20 7 43% 76.3 0.0
07 13:35 N 13 16.09 Fair CLR 20 8 46% 76.33 0.0
07 13:15 N 11 16.09 Fair CLR 20 8 46% 76.33 0.0
07 12:55 N 9 16.09 Fair CLR 20 7 43% 76.35 0.0
07 12:35 NW 11 16.09 Fair CLR 20 8 46% 76.38 0.0
07 12:15 N 9 16.09 Fair CLR 18 8 52% 76.4 0.0
07 11:55 Calm 16.09 Fair CLR 18 8 52% 76.4 0.0 0.03
07 11:35 Calm 16.09 Fair CLR 18 7 49% 76.4 0.0
07 11:15 Calm 16.09 Fair CLR 17 7 52% 76.43 0.0
07 10:55 Calm 16.09 Fair CLR 17 7 52% 76.4 0.0
07 10:35 Calm 16.09 Fair CLR 16 7 55% 76.4 0.0
07 10:15 Calm 16.09 Fair CLR 16 7 55% 76.43 0.0
07 09:55 Calm 16.09 Fair CLR 16 8 59% 76.45 0.0
07 09:35 Calm 16.09 Fair CLR 15 8 63% 76.43 0.0
07 09:15 Calm 16.09 Fair CLR 14 8 67% 76.38 0.0
07 08:55 Calm 16.09 Fair CLR 13 8 72% 76.38 0.0
07 08:35 Calm 16.09 Fair CLR 13 8 72% 76.4 0.0
07 08:15 Calm 16.09 Fair CLR 12 8 77% 76.4 0.0
07 07:55 Calm 16.09 Fair CLR 12 8 77% 76.4 0.0 0.03
07 07:35 Calm 16.09 Fair CLR 11 8 82% 76.38 0.0
07 07:15 Calm 16.09 Fair CLR 11 8 82% 76.38 0.0
07 06:55 Calm 16.09 Fair CLR 11 8 82% 76.33 0.0
07 06:35 Calm 16.09 Fair CLR 11 8 82% 76.25 0.0
07 06:15 Calm 16.09 Fair CLR 11 8 82% 76.25 0.0
07 05:55 Calm 16.09 Fair CLR 11 8 82% 76.25 0.0
07 05:35 Calm 16.09 Fair CLR 11 8 82% 76.25 0.0
07 05:15 Calm 16.09 Fair CLR 11 8 82% 76.23 0.0
07 04:55 Calm 16.09 Fair CLR 11 8 82% 76.2 0.0
07 04:35 Calm 16.09 Partly Cloudy SCT039 11 8 82% 76.2 0.0
07 04:15 Calm 16.09 Overcast OVC037 12 8 77% 76.2 0.0
07 03:55 Calm 16.09 Overcast BKN035 OVC043 12 8 77% 76.2 0.0 0.03
07 03:35 Calm 16.09 Overcast SCT031 OVC043 12 8 77% 76.23 0.0 0.03
07 03:15 Calm 16.09 Overcast OVC031 12 8 77% 76.25 0.0 0.03
07 02:55 Calm 16.09 Overcast OVC031 12 8 77% 76.23 0.0
07 02:35 Calm 16.09 Overcast OVC031 12 9 82% 76.25 0.0
07 02:15 Calm 16.09 Overcast OVC029 12 9 82% 76.25 0.0
07 01:55 Calm 16.09 Overcast OVC029 11 8 82% 76.25 0.0
07 01:35 Calm 16.09 Overcast SCT010 OVC029 12 8 77% 76.25 0.0
07 01:15 N 6 16.09 Overcast BKN008 OVC027 12 9 82% 76.28 0.0
07 00:55 N 9 16.09 Overcast BKN008 BKN027 OVC039 12 10 88% 76.28 0.0
07 00:35 NW 13 16.09 Overcast BKN010 OVC023 12 10 88% 76.25 0.0
07 00:15 N 11 16.09 Overcast BKN010 OVC023 12 9 82% 76.25 0.0
06 23:55 Calm 16.09 Overcast OVC008 12 9 82% 76.23 0.0
06 23:35 Calm 16.09 Light Drizzle OVC008 12 10 88% 76.23 0.0
06 23:15 N 6 16.09 Rain OVC006 12 10 88% 76.2 0.0
06 22:55 N 9 11.27 Light Rain OVC008 12 10 88% 76.2 0.0
06 22:15 Calm 16.09 Overcast OVC008 12 10 88% 76.17 0.0
06 21:55 N 6 16.09 Light Rain OVC008 12 10 88% 76.15 0.0 0.03
06 21:35 N 7 16.09 Overcast OVC008 13 10 82% 76.15 0.0
06 21:15 NE 6 16.09 Overcast OVC008 13 11 88% 76.12 0.0
06 20:55 N 7 16.09 Overcast OVC008 13 10 82% 76.1 0.0
06 20:35 N 7 16.09 Overcast OVC008 13 11 88% 76.05 0.0
06 20:15 N 15 16.09 Overcast OVC008 13 11 88% 76.02 0.0
06 19:55 N 9 16.09 Overcast OVC008 13 11 88% 76 0.0
06 19:35 N 7 16.09 Overcast OVC008 13 11 88% 76 0.0
06 19:15 N 9 16.09 Overcast OVC008 13 11 88% 76 0.0
06 18:55 Calm 16.09 Overcast OVC008 14 12 88% 76 0.0 0.03
06 18:35 Calm 16.09 Overcast OVC008 14 12 88% 75.97 0.0 0.03
06 17:55 Calm 16.09 Overcast OVC008 14 12 88% 75.97 0.0
06 17:35 Calm 16.09 Overcast OVC008 14 12 88% 75.92 0.0
06 17:15 Calm 11.27 Rain OVC008 15 12 82% 75.92 0.0
06 16:35 NE 7 16.09 Overcast OVC008 15 12 82% 75.92 0.0
06 16:15 Calm 16.09 Overcast OVC008 15 12 82% 75.95 0.0
06 15:55 N 6 G 26 16.09 Overcast OVC008 16 12 77% 75.92 0.0
06 15:35 N 11 16.09 Overcast OVC008 16 12 77% 75.87 0.0
06 15:15 NE 9 16.09 Overcast OVC008 16 13 83% 75.9 0.0
06 14:55 N 11 16.09 Overcast OVC006 16 13 83% 75.9 0.0 0.03
06 14:35 N 17 16.09 Overcast OVC006 16 13 83% 75.92 0.0 0.03
06 14:15 NE 9 16.09 Overcast OVC006 16 13 83% 75.95 0.0 0.03
06 13:55 NE 6 16.09 Overcast OVC006 16 13 83% 75.92 0.0
06 13:35 NE 9 16.09 Overcast OVC004 16 14 88% 76 0.0
06 13:15 N 15 16.09 Overcast OVC004 17 15 88% 76 0.0
06 12:55 N 11 16.09 Overcast OVC004 16 15 94% 76.02 0.0
Date Time (cdt) Wind (kph) Vis. (km) Weather Sky Cond. Air Dwpt Max. Min. Relative Humidity Wind Chill (°C) Heat Index (°C) altimeter (cm) sea level (mb) 1 hr 3 hr 6 hr
6 hour
Temperature (ºC) Pressure Precipitation (cm)